LPPD/PDL METAR and TAF weather

Enter ICAO airport designator
Station Type Date Time Source
LPPD METAR 2021/09/20 04:30 UTC NOAA

LPPD 200430Z 05006KT 010V070 9999 FEW022 BKN049 20/15 Q1029


Station Type Date Time Source
LPPD Decoded METAR 2021/09/20 04:30 UTC NOAA

Ponta Delgada / Nordela Acores , Portugal (LPPD) 37-44N 025-42W 72M
Sep 20, 2021 - 12:30 AM EDT / 2021.09.20 0430 UTC
Wind: from the NE (050 degrees) at 7 MPH (6 KT) (direction variable):0
Visibility: greater than 7 mile(s):0
Sky conditions: mostly cloudy
Temperature: 68 F (20 C)
Dew Point: 59 F (15 C)
Relative Humidity: 72%
Pressure (altimeter): 30.39 in. Hg (1029 hPa)
ob: LPPD 200430Z 05006KT 010V070 9999 FEW022 BKN049 20/15 Q1029
cycle: 4

Station Type Date Time Source
LPPD TAF 2021/09/19 18:18 UTC NOAA

TAF LPPD 191700Z 1918/2018 12010KT 9999 FEW025 BKN040
BECMG 1918/1921 VRB05KT
TEMPO 1918/2018 SCT020
BECMG 2014/2016 12010KT

Example: see airport list